Time;durP1;ratioP1;P1;durP2;ratioP2;P2;SDS_P1;SDS_P2;PMS_P1;PMS_P2;Temp;Humidity;BMP_temperature;BMP_pressure;BME280_temperature;BME280_humidity;BME280_pressure;Samples;Min_cycle;Max_cycle;Signal;HPM_P1;HPM_P2
2021/07/07 00:01:02;;;;;;;8.45;2.50;;;14.70;99.90;;;;;;4953006;28;20531;-80
2021/07/07 00:03:29;;;;;;;8.15;2.35;;;14.60;99.90;;;;;;4970636;28;20051;-79
2021/07/07 00:05:56;;;;;;;5.05;2.30;;;14.60;99.90;;;;;;4985283;28;20062;-80
2021/07/07 00:08:23;;;;;;;2.72;2.35;;;14.50;99.90;;;;;;4952836;28;20646;-81
2021/07/07 00:10:49;;;;;;;4.30;2.33;;;14.50;99.90;;;;;;4984586;28;20215;-80
2021/07/07 00:13:17;;;;;;;3.50;2.33;;;14.60;99.90;;;;;;4954807;28;20047;-80
2021/07/07 00:15:44;;;;;;;4.93;2.65;;;14.60;99.90;;;;;;4950787;29;20055;-81
2021/07/07 00:18:11;;;;;;;14.60;3.10;;;14.60;99.90;;;;;;4919336;29;20055;-80
2021/07/07 00:20:44;;;;;;;6.78;2.83;;;14.50;99.90;;;;;;4933207;29;20102;-80
2021/07/07 00:23:12;;;;;;;8.70;2.70;;;14.60;99.90;;;;;;4935536;29;20125;-81
2021/07/07 00:25:39;;;;;;;4.97;2.78;;;14.60;99.90;;;;;;4984220;28;20047;-79
2021/07/07 00:28:06;;;;;;;10.75;3.08;;;14.50;99.90;;;;;;4954106;28;20074;-80
2021/07/07 00:30:33;;;;;;;8.20;2.72;;;14.40;99.90;;;;;;4956531;28;20130;-79
2021/07/07 00:33:00;;;;;;;7.53;3.13;;;14.50;99.90;;;;;;4936045;29;20138;-79
2021/07/07 00:35:27;;;;;;;7.30;3.13;;;14.40;99.90;;;;;;4939987;29;20063;-80
2021/07/07 00:37:53;;;;;;;9.88;3.28;;;14.40;99.90;;;;;;4951433;29;20055;-80
2021/07/07 00:40:21;;;;;;;13.80;3.65;;;14.50;99.90;;;;;;4966823;28;20070;-80
2021/07/07 00:42:48;;;;;;;6.75;3.05;;;14.40;99.90;;;;;;4983821;28;20057;-80
2021/07/07 00:45:16;;;;;;;5.38;2.42;;;14.30;99.90;;;;;;4965281;28;20066;-80
2021/07/07 00:47:48;;;;;;;5.95;2.58;;;14.10;99.90;;;;;;4955715;28;20715;-81
2021/07/07 00:50:17;;;;;;;3.53;2.67;;;14.20;99.90;;;;;;4987488;28;20406;-79
2021/07/07 00:52:44;;;;;;;4.07;3.05;;;14.00;99.90;;;;;;4943163;28;20137;-77
2021/07/07 00:55:13;;;;;;;5.05;3.00;;;14.00;99.90;;;;;;4973226;28;20126;-82
2021/07/07 00:57:44;;;;;;;7.25;2.92;;;14.00;99.90;;;;;;4981070;28;20030;-79
2021/07/07 01:00:14;;;;;;;9.05;3.47;;;14.00;99.90;;;;;;4994879;28;20145;-80
2021/07/07 01:02:44;;;;;;;7.13;3.08;;;13.90;99.90;;;;;;4991030;28;20054;-80
2021/07/07 01:05:13;;;;;;;7.60;3.20;;;13.90;99.90;;;;;;4938724;28;20424;-80
2021/07/07 01:07:42;;;;;;;5.57;3.60;;;13.80;99.90;;;;;;4953058;28;20054;-80
2021/07/07 01:10:12;;;;;;;7.85;3.95;;;13.80;99.90;;;;;;4937929;29;20051;-82
2021/07/07 01:12:39;;;;;;;6.15;3.50;;;13.80;99.90;;;;;;4935030;29;20409;-79
2021/07/07 01:15:12;;;;;;;10.70;3.72;;;13.70;99.90;;;;;;4950987;28;20047;-80
2021/07/07 01:17:39;;;;;;;8.57;4.00;;;13.60;99.90;;;;;;4937412;28;20046;-80
2021/07/07 01:20:08;;;;;;;8.40;4.25;;;13.60;99.90;;;;;;4953897;28;20047;-81
2021/07/07 01:22:35;;;;;;;7.28;3.58;;;13.60;99.90;;;;;;4970697;28;20062;-81
2021/07/07 01:25:02;;;;;;;8.07;4.30;;;13.60;99.90;;;;;;4962617;28;20129;-81
2021/07/07 01:27:30;;;;;;;10.43;3.90;;;13.50;99.90;;;;;;4968547;28;20058;-80
2021/07/07 01:29:58;;;;;;;5.18;2.95;;;13.60;99.90;;;;;;4986753;28;20146;-80
2021/07/07 01:32:25;;;;;;;9.85;4.60;;;13.50;99.90;;;;;;4969416;28;20525;-80
2021/07/07 01:34:52;;;;;;;6.65;4.05;;;13.50;99.90;;;;;;4969934;28;20054;-80
2021/07/07 01:37:19;;;;;;;7.97;3.70;;;13.40;99.90;;;;;;4937413;28;20049;-80
2021/07/07 01:39:46;;;;;;;7.72;3.65;;;13.50;99.90;;;;;;4984051;28;20152;-79
2021/07/07 01:42:13;;;;;;;7.50;3.83;;;13.50;99.90;;;;;;4962952;28;20043;-81
2021/07/07 01:44:40;;;;;;;5.75;3.80;;;13.60;99.90;;;;;;4937441;29;20047;-79
2021/07/07 01:47:08;;;;;;;5.95;3.90;;;13.50;99.90;;;;;;4956337;28;20142;-80
2021/07/07 01:49:35;;;;;;;7.57;3.60;;;13.50;99.90;;;;;;4949022;29;20063;-80
2021/07/07 01:52:02;;;;;;;4.63;3.83;;;13.60;99.90;;;;;;4932953;29;20690;-80
2021/07/07 01:54:29;;;;;;;8.38;3.90;;;13.60;99.90;;;;;;4952924;28;20491;-80
2021/07/07 01:56:57;;;;;;;9.35;4.10;;;13.60;99.90;;;;;;4960740;28;20224;-80
2021/07/07 01:59:24;;;;;;;9.57;4.00;;;13.40;99.90;;;;;;4953334;28;20505;-80
2021/07/07 02:01:51;;;;;;;9.98;4.15;;;13.40;99.90;;;;;;4952988;28;20058;-80
2021/07/07 02:04:21;;;;;;;7.82;4.18;;;13.40;99.90;;;;;;4967259;28;20098;-81
2021/07/07 02:06:49;;;;;;;7.82;4.65;;;13.30;99.90;;;;;;4969580;28;20047;-80
2021/07/07 02:09:19;;;;;;;7.40;3.70;;;13.30;99.90;;;;;;4958913;28;20051;-78
2021/07/07 02:11:47;;;;;;;8.75;3.55;;;13.40;99.90;;;;;;4987669;28;20055;-79
2021/07/07 02:14:15;;;;;;;7.25;4.70;;;13.30;99.90;;;;;;4956189;29;20051;-81
2021/07/07 02:16:43;;;;;;;10.18;4.03;;;13.20;99.90;;;;;;4935591;29;20063;-80
2021/07/07 02:19:10;;;;;;;6.05;4.00;;;13.20;99.90;;;;;;4971552;28;20042;-81
2021/07/07 02:21:37;;;;;;;8.35;3.92;;;13.40;99.90;;;;;;4990248;28;20054;-81
2021/07/07 02:24:05;;;;;;;7.57;4.15;;;13.20;99.90;;;;;;4941428;28;20050;-81
2021/07/07 02:26:32;;;;;;;11.18;5.10;;;13.20;99.90;;;;;;4975550;28;20078;-80
2021/07/07 02:28:59;;;;;;;10.93;4.75;;;13.40;99.90;;;;;;4989464;28;20267;-80
2021/07/07 02:31:25;;;;;;;9.40;4.55;;;13.40;99.90;;;;;;4946910;28;20052;-80
2021/07/07 02:33:52;;;;;;;11.93;4.70;;;13.40;99.90;;;;;;4967838;28;20057;-80
2021/07/07 02:36:19;;;;;;;9.55;4.90;;;13.30;99.90;;;;;;4948355;28;20569;-80
2021/07/07 02:38:47;;;;;;;9.57;5.00;;;13.20;99.90;;;;;;4976966;28;20598;-80
2021/07/07 02:41:14;;;;;;;7.20;4.53;;;13.10;99.90;;;;;;4974499;28;20138;-81
2021/07/07 02:43:41;;;;;;;8.38;4.10;;;13.00;99.90;;;;;;4952859;28;20054;-81
2021/07/07 02:46:08;;;;;;;13.05;5.05;;;13.00;99.90;;;;;;4955175;29;20047;-80
2021/07/07 02:48:35;;;;;;;9.82;4.85;;;13.10;99.90;;;;;;4962067;28;20053;-80
2021/07/07 02:51:02;;;;;;;8.20;4.70;;;13.10;99.90;;;;;;4978206;28;20077;-81
2021/07/07 02:53:29;;;;;;;11.23;4.97;;;13.20;99.90;;;;;;4954932;28;20054;-80
2021/07/07 02:55:55;;;;;;;6.45;4.90;;;13.20;99.90;;;;;;5002412;28;20061;-81
2021/07/07 02:58:22;;;;;;;9.93;4.07;;;13.40;99.90;;;;;;4976043;28;20062;-80
2021/07/07 03:00:50;;;;;;;6.13;4.38;;;13.20;99.90;;;;;;4994976;28;20083;-81
2021/07/07 03:03:19;;;;;;;9.25;4.18;;;13.20;99.90;;;;;;4950831;28;20260;-80
2021/07/07 03:06:00;;;;;;;10.73;5.03;;;13.20;99.90;;;;;;4997011;28;20177;-80
2021/07/07 03:08:32;;;;;;;10.15;4.88;;;13.20;99.90;;;;;;4982048;28;20541;-81
2021/07/07 03:11:00;;;;;;;6.55;4.70;;;13.30;99.90;;;;;;4974447;28;20054;-82
2021/07/07 03:13:28;;;;;;;13.18;4.22;;;13.30;99.90;;;;;;4954322;28;20057;-81
2021/07/07 03:15:56;;;;;;;11.07;4.53;;;13.20;99.90;;;;;;4950449;29;20058;-80
2021/07/07 03:18:23;;;;;;;8.13;3.97;;;13.10;99.90;;;;;;4936234;29;20150;-80
2021/07/07 03:20:51;;;;;;;8.77;3.88;;;13.00;99.90;;;;;;4955170;28;20058;-81
2021/07/07 03:23:19;;;;;;;8.27;4.30;;;13.00;99.90;;;;;;4969789;28;20059;-80
2021/07/07 03:25:47;;;;;;;16.25;4.88;;;13.00;99.90;;;;;;4935095;29;20077;-81
2021/07/07 03:28:15;;;;;;;9.57;4.80;;;13.20;99.90;;;;;;4968546;28;20055;-80
2021/07/07 03:30:42;;;;;;;8.75;4.65;;;13.00;99.90;;;;;;4962241;28;20042;-80
2021/07/07 03:33:09;;;;;;;8.65;4.30;;;13.00;99.90;;;;;;4957466;28;20042;-80
2021/07/07 03:35:36;;;;;;;7.07;4.50;;;12.90;99.90;;;;;;4989857;28;20047;-81
2021/07/07 03:38:04;;;;;;;12.15;4.18;;;12.90;99.90;;;;;;4972822;28;20149;-80
2021/07/07 03:40:32;;;;;;;8.50;4.55;;;13.10;99.90;;;;;;4985637;28;21820;-80
2021/07/07 03:42:59;;;;;;;8.15;5.25;;;13.20;99.90;;;;;;4940215;29;20107;-81
2021/07/07 03:45:27;;;;;;;10.07;5.53;;;13.20;99.90;;;;;;4989173;28;20043;-81
2021/07/07 03:47:57;;;;;;;8.25;4.55;;;13.30;99.90;;;;;;4958511;29;20051;-80
2021/07/07 03:50:24;;;;;;;8.15;4.43;;;13.30;99.90;;;;;;4978238;28;20055;-80
2021/07/07 03:52:51;;;;;;;7.22;4.95;;;13.30;99.90;;;;;;4969888;28;20055;-80
2021/07/07 03:55:20;;;;;;;10.27;4.70;;;13.30;99.90;;;;;;4963429;28;20074;-80
2021/07/07 03:57:48;;;;;;;10.02;5.63;;;13.30;99.90;;;;;;4988513;28;20117;-80
2021/07/07 04:00:22;;;;;;;11.02;4.82;;;13.40;99.90;;;;;;4970063;28;20050;-80
2021/07/07 04:02:50;;;;;;;10.43;5.18;;;13.20;99.90;;;;;;4986940;28;20078;-82
2021/07/07 04:05:17;;;;;;;10.82;4.38;;;13.30;99.90;;;;;;4969802;28;20096;-79
2021/07/07 04:07:44;;;;;;;10.30;5.00;;;13.30;99.90;;;;;;4983462;28;20642;-80
2021/07/07 04:10:14;;;;;;;9.10;4.63;;;13.40;99.90;;;;;;4967007;28;20059;-79
2021/07/07 04:12:42;;;;;;;6.75;4.72;;;13.50;99.90;;;;;;4952719;28;20054;-78
2021/07/07 04:15:11;;;;;;;9.10;4.28;;;13.50;99.90;;;;;;4967257;28;20048;-80
2021/07/07 04:17:38;;;;;;;9.15;4.20;;;13.30;99.90;;;;;;4953782;29;20083;-80
2021/07/07 04:20:08;;;;;;;6.68;4.15;;;13.20;99.90;;;;;;4935673;29;20113;-81
2021/07/07 04:22:36;;;;;;;6.68;4.50;;;13.30;99.90;;;;;;4960515;28;20054;-80
2021/07/07 04:25:06;;;;;;;11.25;5.03;;;13.30;99.90;;;;;;5004685;28;20054;-80
2021/07/07 04:27:34;;;;;;;10.85;4.13;;;13.40;99.90;;;;;;4973008;28;20094;-80
2021/07/07 04:30:00;;;;;;;10.43;4.55;;;13.50;99.90;;;;;;4972828;28;20051;-80
2021/07/07 04:32:27;;;;;;;11.40;5.40;;;13.60;99.90;;;;;;4951116;28;20078;-79
2021/07/07 04:34:54;;;;;;;8.10;4.60;;;13.70;99.90;;;;;;4968929;28;20533;-80
2021/07/07 04:37:21;;;;;;;14.63;5.38;;;13.70;99.90;;;;;;4934750;29;20066;-81
2021/07/07 04:39:48;;;;;;;8.52;4.13;;;13.70;99.90;;;;;;4933721;29;20156;-80
2021/07/07 04:42:15;;;;;;;8.10;4.15;;;13.80;99.90;;;;;;4956209;28;20047;-80
2021/07/07 04:44:42;;;;;;;19.67;4.88;;;13.70;99.90;;;;;;4934561;29;20597;-81
2021/07/07 04:47:08;;;;;;;5.55;4.30;;;13.90;99.90;;;;;;4950683;29;20075;-80
2021/07/07 04:49:35;;;;;;;11.90;4.55;;;13.90;99.90;;;;;;4951824;29;20447;-80
2021/07/07 04:52:04;;;;;;;8.02;4.15;;;14.00;99.90;;;;;;4923180;29;20533;-79
2021/07/07 04:54:32;;;;;;;8.90;3.88;;;14.00;99.90;;;;;;4938569;29;20468;-80
2021/07/07 04:56:59;;;;;;;9.30;4.60;;;14.00;99.90;;;;;;4980508;28;20069;-80
2021/07/07 04:59:27;;;;;;;11.77;4.95;;;14.00;99.90;;;;;;4936532;28;20077;-80
2021/07/07 05:01:53;;;;;;;11.07;4.38;;;14.00;99.90;;;;;;4954016;28;20572;-80
2021/07/07 05:04:20;;;;;;;13.10;4.50;;;14.10;99.90;;;;;;4986262;28;20047;-81
2021/07/07 05:06:47;;;;;;;7.75;3.65;;;14.20;99.90;;;;;;4990211;28;20085;-80
2021/07/07 05:09:14;;;;;;;6.65;4.03;;;14.10;99.90;;;;;;4944372;29;20054;-80
2021/07/07 05:11:41;;;;;;;10.02;4.85;;;14.20;99.90;;;;;;4954523;28;20046;-79
2021/07/07 05:14:08;;;;;;;10.30;4.15;;;14.20;99.90;;;;;;4977842;28;20074;-78
2021/07/07 05:16:35;;;;;;;10.68;3.70;;;14.30;99.90;;;;;;4925061;29;20183;-80
2021/07/07 05:19:02;;;;;;;10.93;4.55;;;14.40;99.90;;;;;;4922723;29;20097;-80
2021/07/07 05:21:29;;;;;;;9.68;3.97;;;14.40;99.90;;;;;;4946791;28;20138;-80
2021/07/07 05:23:57;;;;;;;7.55;4.53;;;14.60;99.90;;;;;;4996893;28;20082;-80
2021/07/07 05:26:23;;;;;;;9.50;3.67;;;14.70;99.90;;;;;;4982090;28;20058;-80
2021/07/07 05:28:50;;;;;;;10.57;3.90;;;14.80;99.90;;;;;;4988569;28;20069;-80
2021/07/07 05:31:17;;;;;;;5.78;3.38;;;14.80;99.90;;;;;;4981797;28;20051;-78
2021/07/07 05:33:44;;;;;;;7.20;3.55;;;15.00;99.90;;;;;;4956921;28;20176;-79
2021/07/07 05:36:11;;;;;;;4.47;2.92;;;15.00;99.90;;;;;;5021697;28;20035;-81
2021/07/07 05:38:38;;;;;;;6.63;3.08;;;15.00;99.90;;;;;;4991190;28;20131;-81
2021/07/07 05:41:05;;;;;;;12.32;2.97;;;15.10;99.90;;;;;;4983567;28;20099;-81
2021/07/07 05:43:33;;;;;;;4.32;2.60;;;15.10;99.90;;;;;;5009596;28;20039;-81
2021/07/07 05:46:00;;;;;;;4.95;2.85;;;15.20;99.90;;;;;;4975555;28;20039;-80
2021/07/07 05:48:27;;;;;;;9.52;3.15;;;15.50;99.90;;;;;;4964249;28;20086;-79
2021/07/07 05:50:55;;;;;;;7.68;2.83;;;15.70;99.90;;;;;;4994501;28;20043;-80
2021/07/07 05:53:26;;;;;;;10.18;3.38;;;15.80;99.90;;;;;;4976480;28;20051;-80
2021/07/07 05:55:53;;;;;;;7.32;2.60;;;15.80;99.90;;;;;;5010524;28;20050;-80
2021/07/07 05:58:20;;;;;;;6.63;3.35;;;15.90;99.90;;;;;;4975688;28;20584;-80
2021/07/07 06:00:47;;;;;;;8.07;2.80;;;16.00;99.90;;;;;;4977052;28;20118;-81
2021/07/07 06:03:14;;;;;;;6.10;2.58;;;16.20;99.90;;;;;;4974565;28;20074;-80
2021/07/07 06:05:42;;;;;;;5.88;2.97;;;16.30;99.90;;;;;;4979641;28;20054;-82
2021/07/07 06:08:09;;;;;;;13.27;3.38;;;16.30;99.90;;;;;;4977650;28;20133;-81
2021/07/07 06:10:36;;;;;;;6.07;2.78;;;16.40;99.90;;;;;;4972868;28;20493;-81
2021/07/07 06:13:03;;;;;;;6.22;3.20;;;16.50;99.90;;;;;;4942712;29;20572;-80
2021/07/07 06:15:32;;;;;;;7.38;3.10;;;16.50;99.90;;;;;;4946181;29;20051;-82
2021/07/07 06:18:00;;;;;;;5.13;2.58;;;16.60;99.90;;;;;;4987017;28;20467;-81
2021/07/07 06:20:27;;;;;;;5.18;3.10;;;16.70;99.90;;;;;;5009660;28;20054;-80
2021/07/07 06:22:54;;;;;;;7.47;3.58;;;16.90;99.90;;;;;;5013592;28;20045;-84
2021/07/07 06:25:21;;;;;;;8.10;3.83;;;17.00;99.90;;;;;;5011549;28;20111;-80
2021/07/07 06:27:48;;;;;;;7.43;3.58;;;17.20;99.90;;;;;;4956846;28;20065;-81
2021/07/07 06:30:18;;;;;;;4.90;3.70;;;17.30;99.90;;;;;;4971748;28;20182;-82
2021/07/07 06:32:47;;;;;;;7.60;3.60;;;17.30;99.90;;;;;;4993995;28;20051;-85
2021/07/07 06:35:14;;;;;;;6.90;4.50;;;17.60;99.90;;;;;;4997037;28;20039;-81
2021/07/07 06:37:42;;;;;;;7.47;4.80;;;17.90;99.90;;;;;;4993794;28;20050;-79
2021/07/07 06:40:10;;;;;;;10.40;6.35;;;18.60;99.90;;;;;;4950406;28;20401;-80
2021/07/07 06:42:37;;;;;;;10.73;6.45;;;19.10;99.90;;;;;;4992921;28;20051;-80
2021/07/07 06:45:06;;;;;;;8.23;7.07;;;19.40;99.90;;;;;;4958348;28;20489;-82
2021/07/07 06:47:33;;;;;;;10.13;7.82;;;19.60;99.90;;;;;;4973018;28;20082;-81
2021/07/07 06:50:01;;;;;;;8.13;7.38;;;19.80;99.90;;;;;;4973177;28;20047;-80
2021/07/07 06:52:28;;;;;;;9.02;7.50;;;20.00;99.90;;;;;;4957039;28;20775;-80
2021/07/07 06:54:55;;;;;;;8.40;7.70;;;20.00;99.90;;;;;;4940673;29;20067;-79
2021/07/07 06:57:22;;;;;;;12.93;7.97;;;19.70;99.90;;;;;;4974007;28;20111;-81
2021/07/07 06:59:49;;;;;;;9.05;8.23;;;19.80;99.90;;;;;;4961233;28;20142;-80
2021/07/07 07:02:16;;;;;;;8.85;8.13;;;20.00;99.90;;;;;;4979461;28;20063;-80
2021/07/07 07:04:43;;;;;;;10.00;8.73;;;20.30;99.90;;;;;;4977702;28;20653;-81
2021/07/07 07:07:10;;;;;;;9.73;8.95;;;20.40;99.90;;;;;;4974744;28;20077;-82
2021/07/07 07:09:37;;;;;;;9.82;9.02;;;20.30;99.90;;;;;;4945619;28;20497;-81
2021/07/07 07:12:03;;;;;;;11.55;9.20;;;20.40;99.90;;;;;;4950184;28;20070;-81
2021/07/07 07:14:30;;;;;;;10.23;9.18;;;20.50;99.90;;;;;;4980856;28;20087;-81
2021/07/07 07:16:57;;;;;;;10.20;9.02;;;20.80;99.90;;;;;;4954492;28;20441;-80
2021/07/07 07:19:24;;;;;;;10.88;10.02;;;21.10;99.90;;;;;;4989213;28;20047;-81
2021/07/07 07:21:52;;;;;;;10.80;10.00;;;21.30;99.90;;;;;;4976354;28;20070;-79
2021/07/07 07:24:19;;;;;;;11.02;9.93;;;21.50;99.90;;;;;;4961525;28;20063;-80
2021/07/07 07:26:46;;;;;;;10.98;10.20;;;21.70;99.90;;;;;;4981555;28;20254;-80
2021/07/07 07:29:13;;;;;;;10.88;9.88;;;21.90;99.90;;;;;;4961810;29;20062;-83
2021/07/07 07:31:40;;;;;;;11.60;10.60;;;22.20;99.90;;;;;;4961970;28;20054;-81
2021/07/07 07:34:07;;;;;;;10.82;9.93;;;22.30;99.90;;;;;;4957851;28;20054;-82
2021/07/07 07:36:34;;;;;;;11.20;10.27;;;22.40;99.90;;;;;;4942404;29;20047;-81
2021/07/07 07:39:08;;;;;;;11.18;10.10;;;22.80;99.90;;;;;;4952329;28;20047;-81
2021/07/07 07:41:39;;;;;;;12.13;10.98;;;23.00;99.90;;;;;;4941294;29;20175;-82
2021/07/07 07:44:08;;;;;;;12.10;10.90;;;23.10;99.90;;;;;;4940786;29;20045;-80
2021/07/07 07:46:35;;;;;;;11.90;10.90;;;23.20;99.90;;;;;;4923287;29;20047;-80
2021/07/07 07:49:05;;;;;;;11.52;10.38;;;23.30;99.90;;;;;;4988628;28;20051;-80
2021/07/07 07:51:33;;;;;;;10.88;10.07;;;23.40;99.90;;;;;;4956542;28;20055;-81
2021/07/07 07:54:00;;;;;;;13.52;11.27;;;23.60;99.90;;;;;;4989634;28;20601;-80
2021/07/07 07:56:27;;;;;;;12.35;10.82;;;23.50;99.90;;;;;;4972731;28;20520;-80
2021/07/07 07:58:54;;;;;;;14.02;10.90;;;23.50;99.90;;;;;;4972705;28;20128;-80
2021/07/07 08:01:24;;;;;;;12.05;11.20;;;23.50;99.90;;;;;;4971346;28;20050;-80
2021/07/07 08:03:51;;;;;;;12.15;11.10;;;23.50;99.90;;;;;;4975996;28;20619;-79
2021/07/07 08:06:18;;;;;;;12.57;11.38;;;23.00;99.90;;;;;;4923645;29;20063;-80
2021/07/07 08:08:45;;;;;;;12.35;11.43;;;23.10;99.90;;;;;;4953981;28;20114;-81
2021/07/07 08:11:12;;;;;;;13.10;11.77;;;23.50;99.90;;;;;;4937953;28;20050;-81
2021/07/07 08:13:40;;;;;;;12.70;11.65;;;23.80;99.90;;;;;;4933398;28;20097;-81
2021/07/07 08:16:07;;;;;;;12.55;11.55;;;23.70;99.90;;;;;;4945370;29;20505;-82
2021/07/07 08:18:35;;;;;;;12.45;11.43;;;23.60;99.90;;;;;;4938847;29;20516;-80
2021/07/07 08:21:03;;;;;;;13.63;12.63;;;23.50;99.90;;;;;;4970169;28;20063;-83
2021/07/07 08:23:30;;;;;;;12.57;11.48;;;23.00;99.90;;;;;;4923192;29;20047;-80
2021/07/07 08:25:58;;;;;;;13.02;11.85;;;22.80;99.90;;;;;;4938509;29;20130;-80
2021/07/07 08:28:25;;;;;;;12.68;11.65;;;22.60;99.90;;;;;;4921715;29;20118;-82
2021/07/07 08:30:52;;;;;;;12.73;11.48;;;22.40;99.90;;;;;;4957200;28;20103;-81
2021/07/07 08:33:19;;;;;;;13.07;11.73;;;22.30;99.90;;;;;;4986986;28;20043;-82
2021/07/07 08:35:46;;;;;;;14.25;11.80;;;22.50;99.90;;;;;;4957166;28;20062;-83
2021/07/07 08:38:13;;;;;;;12.85;11.57;;;22.80;99.90;;;;;;4973280;28;20107;-82
2021/07/07 08:40:40;;;;;;;12.90;11.65;;;23.10;99.90;;;;;;4973656;28;20046;-82
2021/07/07 08:43:09;;;;;;;15.55;11.95;;;23.10;99.90;;;;;;4960571;28;20516;-80
2021/07/07 08:45:36;;;;;;;15.35;11.10;;;23.00;99.90;;;;;;4936750;29;20067;-80
2021/07/07 08:48:04;;;;;;;11.82;11.02;;;23.10;99.90;;;;;;4954714;29;20048;-79
2021/07/07 08:50:37;;;;;;;13.00;11.65;;;23.40;99.90;;;;;;4920412;28;20098;-80
2021/07/07 08:53:07;;;;;;;12.00;11.20;;;23.70;99.90;;;;;;4927925;29;20183;-82
2021/07/07 08:55:34;;;;;;;13.15;11.88;;;23.50;99.90;;;;;;4942024;29;20078;-81
2021/07/07 08:58:01;;;;;;;12.00;11.05;;;23.20;99.90;;;;;;4937337;29;20141;-80
2021/07/07 09:00:37;;;;;;;12.23;11.20;;;23.20;99.90;;;;;;4952039;28;20129;-81
2021/07/07 09:03:04;;;;;;;11.02;10.40;;;23.00;99.90;;;;;;4989484;28;20046;-82
2021/07/07 09:05:48;;;;;;;12.35;11.25;;;23.10;99.90;;;;;;4963218;28;20046;-80
2021/07/07 09:08:21;;;;;;;12.40;11.20;;;23.20;99.90;;;;;;4974955;28;20117;-82
2021/07/07 09:10:48;;;;;;;12.45;11.40;;;23.00;99.90;;;;;;4989602;28;20053;-81
2021/07/07 09:13:21;;;;;;;16.05;11.20;;;22.80;99.90;;;;;;4951238;28;20071;-81
2021/07/07 09:15:51;;;;;;;12.48;11.38;;;22.50;99.90;;;;;;4941656;28;20047;-79
2021/07/07 09:18:32;;;;;;;11.65;10.68;;;22.50;99.90;;;;;;4944817;29;20051;-83
2021/07/07 09:20:59;;;;;;;11.13;10.27;;;22.50;99.90;;;;;;4940692;29;20058;-82
2021/07/07 09:23:28;;;;;;;11.20;10.20;;;22.50;99.90;;;;;;4950983;28;20051;-83
2021/07/07 09:26:04;;;;;;;14.63;11.27;;;22.40;99.90;;;;;;4973139;28;20130;-82
2021/07/07 09:28:34;;;;;;;12.43;11.38;;;22.50;99.90;;;;;;4973380;28;20043;-81
2021/07/07 09:31:05;;;;;;;11.52;10.48;;;22.40;99.90;;;;;;4938725;29;20047;-80
2021/07/07 09:33:42;;;;;;;14.02;10.80;;;22.30;99.90;;;;;;4984136;28;20070;-80
2021/07/07 09:36:23;;;;;;;11.50;10.40;;;22.20;99.90;;;;;;4990389;28;20053;-80
2021/07/07 09:38:52;;;;;;;10.48;9.43;;;22.30;99.90;;;;;;4962423;28;20063;-83
2021/07/07 09:41:20;;;;;;;10.10;9.20;;;22.40;99.90;;;;;;5002703;28;20050;-80
2021/07/07 09:43:49;;;;;;;13.07;9.80;;;22.50;99.90;;;;;;4945374;29;20039;-80
2021/07/07 09:46:18;;;;;;;11.15;10.07;;;22.60;99.90;;;;;;4973314;28;20055;-81
2021/07/07 09:48:47;;;;;;;11.07;10.18;;;22.50;99.90;;;;;;4939827;29;20081;-80
2021/07/07 09:51:14;;;;;;;11.15;10.00;;;22.30;99.90;;;;;;4920452;29;20039;-82
2021/07/07 09:53:41;;;;;;;10.88;9.55;;;22.10;99.90;;;;;;4937754;29;20079;-80
2021/07/07 09:56:08;;;;;;;9.98;8.95;;;22.20;99.90;;;;;;4937730;29;20139;-79
2021/07/07 09:58:35;;;;;;;9.93;9.10;;;22.10;99.90;;;;;;4939221;29;20115;-82
2021/07/07 10:01:03;;;;;;;11.45;9.48;;;22.20;99.90;;;;;;4927075;28;20047;-82
2021/07/07 10:03:32;;;;;;;10.63;9.20;;;21.90;99.90;;;;;;4953993;28;20078;-80
2021/07/07 10:05:59;;;;;;;9.05;8.48;;;21.80;99.90;;;;;;4952991;28;20056;-82
2021/07/07 10:08:27;;;;;;;10.30;9.32;;;22.00;99.90;;;;;;4948628;29;20074;-81
2021/07/07 10:10:57;;;;;;;9.80;9.02;;;22.00;99.90;;;;;;4952317;28;20071;-81
2021/07/07 10:13:26;;;;;;;11.52;10.52;;;21.90;99.90;;;;;;4937357;29;20047;-81
2021/07/07 10:15:54;;;;;;;10.35;9.40;;;21.90;99.90;;;;;;4953968;28;20062;-82
2021/07/07 10:18:21;;;;;;;10.90;10.00;;;22.10;99.90;;;;;;4952196;29;20047;-81
2021/07/07 10:20:48;;;;;;;12.80;9.70;;;22.40;99.90;;;;;;4969128;28;20047;-82
2021/07/07 10:23:16;;;;;;;9.63;8.68;;;22.60;99.90;;;;;;4980918;28;20057;-82
2021/07/07 10:25:58;;;;;;;10.88;9.85;;;22.80;99.90;;;;;;4959864;28;20298;-82
2021/07/07 10:28:26;;;;;;;9.90;8.90;;;22.70;99.90;;;;;;4976433;28;20413;-81
2021/07/07 10:30:59;;;;;;;12.75;8.93;;;22.50;99.90;;;;;;4923466;29;20074;-81
2021/07/07 10:33:31;;;;;;;11.07;10.05;;;22.60;99.90;;;;;;4971762;28;20055;-80
2021/07/07 10:36:28;;;;;;;12.10;9.95;;;22.80;99.90;;;;;;4976142;28;20523;-80
2021/07/07 10:39:05;;;;;;;11.35;10.25;;;23.00;99.90;;;;;;4956613;29;20690;-81
2021/07/07 10:41:44;;;;;;;10.65;9.65;;;23.40;99.90;;;;;;4939456;29;20673;-84
2021/07/07 10:44:24;;;;;;;12.02;10.85;;;23.80;99.90;;;;;;4971254;28;20043;-80
2021/07/07 10:47:00;;;;;;;11.60;10.50;;;24.00;99.90;;;;;;4977525;28;20656;-82
2021/07/07 10:49:30;;;;;;;11.43;10.52;;;24.20;99.90;;;;;;4973939;28;20059;-81
2021/07/07 10:51:59;;;;;;;12.88;11.85;;;24.50;99.90;;;;;;4957343;28;20101;-81
2021/07/07 10:54:31;;;;;;;13.18;11.70;;;24.40;99.90;;;;;;4958293;28;20479;-82
2021/07/07 10:56:59;;;;;;;11.68;10.60;;;24.40;99.90;;;;;;4971602;28;20055;-80
2021/07/07 10:59:39;;;;;;;11.60;10.50;;;24.40;99.90;;;;;;4972975;28;20146;-81
2021/07/07 11:02:21;;;;;;;11.95;10.98;;;24.30;99.90;;;;;;4937649;28;20046;-80
2021/07/07 11:04:56;;;;;;;11.95;10.77;;;24.10;99.90;;;;;;4952559;28;20047;-82
2021/07/07 11:07:29;;;;;;;12.02;11.00;;;24.00;99.90;;;;;;4936608;29;20507;-81
2021/07/07 11:10:13;;;;;;;10.57;9.90;;;23.90;99.90;;;;;;4970127;28;20543;-80
2021/07/07 11:12:40;;;;;;;11.00;9.82;;;23.90;99.90;;;;;;4955479;29;20059;-81
2021/07/07 11:15:11;;;;;;;10.27;9.52;;;23.70;99.90;;;;;;4943181;28;20051;-79
2021/07/07 11:17:40;;;;;;;15.80;11.77;;;23.50;99.90;;;;;;4937188;29;20066;-82
2021/07/07 11:20:14;;;;;;;11.00;10.00;;;23.50;99.90;;;;;;4963537;28;20062;-82
2021/07/07 11:22:43;;;;;;;30.33;15.25;;;23.40;99.90;;;;;;4938175;29;20061;-82
2021/07/07 11:25:16;;;;;;;12.75;11.52;;;23.20;99.90;;;;;;4973803;28;20097;-81
2021/07/07 11:27:44;;;;;;;22.95;13.98;;;23.40;99.90;;;;;;4941320;28;20047;-83
2021/07/07 11:30:14;;;;;;;11.93;10.75;;;23.70;99.90;;;;;;4958062;28;20082;-80
2021/07/07 11:32:43;;;;;;;13.35;11.35;;;23.90;99.90;;;;;;4937911;28;20046;-81
2021/07/07 11:35:13;;;;;;;19.60;10.82;;;23.60;99.90;;;;;;4972233;28;20055;-81
2021/07/07 11:37:41;;;;;;;11.13;10.25;;;23.20;99.90;;;;;;4991755;28;20047;-81
2021/07/07 11:40:16;;;;;;;11.55;10.52;;;22.90;99.90;;;;;;4978742;28;20066;-82
2021/07/07 11:43:01;;;;;;;12.23;11.02;;;22.90;99.90;;;;;;4970785;28;20528;-81
2021/07/07 11:45:37;;;;;;;14.38;11.05;;;22.80;99.90;;;;;;4938217;29;20098;-81
2021/07/07 11:50:55;;;;;;;11.57;10.73;;;22.80;99.90;;;;;;4951554;28;20482;-83
2021/07/07 11:53:22;;;;;;;11.07;10.38;;;22.90;99.90;;;;;;4954001;29;20066;-80
2021/07/07 11:55:54;;;;;;;12.63;11.48;;;22.80;99.90;;;;;;4929834;29;20058;-83
2021/07/07 11:58:31;;;;;;;11.70;10.90;;;22.80;99.90;;;;;;4933927;29;20055;-79
2021/07/07 12:01:04;;;;;;;11.77;10.73;;;22.80;99.90;;;;;;4922301;29;20050;-81
2021/07/07 12:03:31;;;;;;;11.77;10.52;;;22.80;99.90;;;;;;4953790;28;20074;-82
2021/07/07 12:06:01;;;;;;;11.77;10.75;;;22.70;99.90;;;;;;4943998;28;20327;-82
2021/07/07 12:08:40;;;;;;;11.10;10.15;;;22.60;99.90;;;;;;4990956;28;20083;-82
2021/07/07 12:11:17;;;;;;;11.18;10.13;;;22.60;99.90;;;;;;4974336;28;20054;-82
2021/07/07 12:13:46;;;;;;;10.93;9.85;;;22.50;99.90;;;;;;4931734;28;20098;-83
2021/07/07 12:16:19;;;;;;;10.88;10.23;;;22.50;99.90;;;;;;4990541;28;20122;-81
2021/07/07 12:19:13;;;;;;;11.55;10.57;;;22.40;99.90;;;;;;4942988;29;20061;-81
2021/07/07 12:21:48;;;;;;;11.65;10.70;;;22.30;99.90;;;;;;4948299;28;20043;-83
2021/07/07 12:24:20;;;;;;;13.98;12.65;;;22.40;99.90;;;;;;4947273;29;20556;-81
2021/07/07 12:26:52;;;;;;;12.68;11.48;;;22.80;99.90;;;;;;4952636;28;20673;-82
2021/07/07 12:29:28;;;;;;;13.07;11.68;;;23.40;99.90;;;;;;4954099;29;20047;-80
2021/07/07 12:31:59;;;;;;;12.02;10.85;;;23.80;99.90;;;;;;4957947;28;20066;-81
2021/07/07 12:34:39;;;;;;;11.75;11.00;;;24.30;99.90;;;;;;4984440;28;20058;-81
2021/07/07 12:37:10;;;;;;;11.75;10.98;;;24.50;99.90;;;;;;4959583;28;20050;-80
2021/07/07 12:39:50;;;;;;;11.75;10.80;;;24.80;99.90;;;;;;4959776;28;20045;-81
2021/07/07 12:42:35;;;;;;;11.30;10.70;;;24.90;99.90;;;;;;4957027;28;20039;-82
2021/07/07 12:45:12;;;;;;;11.93;11.07;;;24.60;99.90;;;;;;4964820;28;20141;-84
2021/07/07 12:47:41;;;;;;;12.05;11.10;;;24.50;99.90;;;;;;4954511;29;20055;-83
2021/07/07 12:50:19;;;;;;;12.55;11.63;;;24.70;99.90;;;;;;4971050;28;20083;-82